Terminal Aerodrome Forecast
Issued by NWS Charleston, WV

Current Version | Previous Version | Graphics & Text | Print | Product List | Glossary On
Versions: 1 2 3 4 5 6 7 8 9 10 11 12 13 14 15 16 17 18 19 20 21 22 23 24 25 26 27
000
FTUS41 KRLX 301700
TAFHTS
TAF
KHTS 301728Z 3018/3118 22006KT P6SM SCT100
     FM310100 20004KT P6SM BKN060
     FM310600 21004KT 6SM -SHRA BR OVC060
     FM310800 21005KT 3SM SHRA BR VCTS OVC040CB
     FM311500 21005KT 3SM TSRA BR OVC025CB=

USA.gov is the U.S. government's official web portal to all federal, state and local government web resources and services.